createdAt,value
2023-04-06T00:01:13.436Z,0.88715
2023-04-06T00:06:16.983Z,0
2023-04-06T00:11:19.020Z,0.88715
2023-04-06T00:16:20.328Z,0
2023-04-06T00:21:21.873Z,0.88715
2023-04-06T00:26:23.216Z,0
2023-04-06T00:31:24.937Z,0
2023-04-06T00:36:26.522Z,0
2023-04-06T00:41:28.067Z,0
2023-04-06T00:46:29.686Z,0
2023-04-06T00:51:31.110Z,0
2023-04-06T00:56:32.535Z,0
2023-04-06T01:01:34.094Z,0
2023-04-06T01:06:35.536Z,0
2023-04-06T01:11:37.169Z,0
2023-04-06T01:16:38.577Z,0.88715
2023-04-06T01:21:39.830Z,0
2023-04-06T01:26:41.252Z,0.88715
2023-04-06T01:31:42.712Z,0
2023-04-06T01:36:44.120Z,0
2023-04-06T01:41:45.525Z,0
2023-04-06T01:46:46.937Z,0.88715
2023-04-06T01:51:48.390Z,0
2023-04-06T01:56:49.674Z,0
2023-04-06T02:01:51.177Z,0.88715
2023-04-06T02:06:52.468Z,0.88715
2023-04-06T02:11:53.725Z,0
2023-04-06T02:16:55.061Z,0
2023-04-06T02:21:56.464Z,0
2023-04-06T02:26:58.066Z,0
2023-04-06T02:31:59.407Z,0.88715
2023-04-06T02:37:00.700Z,0.88715
2023-04-06T02:42:02.392Z,0.88715
2023-04-06T02:47:03.928Z,0.88715
2023-04-06T02:52:05.345Z,0
2023-04-06T02:57:06.783Z,0.88715
2023-04-06T03:02:08.165Z,0
2023-04-06T03:07:09.405Z,0.88715
2023-04-06T03:12:11.075Z,0
2023-04-06T03:17:12.351Z,0
2023-04-06T03:22:13.766Z,0.88715
2023-04-06T03:27:15.429Z,0
2023-04-06T03:32:16.755Z,0
2023-04-06T03:37:18.195Z,0.88715
2023-04-06T03:42:19.462Z,0.88715
2023-04-06T03:47:20.852Z,0.88715
2023-04-06T03:52:22.148Z,0.88715
2023-04-06T03:57:23.650Z,0.88715
2023-04-06T04:02:25.002Z,0.4148
2023-04-06T04:07:26.663Z,3.85445
2023-04-06T04:12:28.318Z,7.7089
2023-04-06T04:17:29.616Z,9.793
2023-04-06T04:22:31.088Z,21.7804
2023-04-06T04:27:32.638Z,35.29855
2023-04-06T04:32:34.242Z,57.18925
2023-04-06T04:37:35.585Z,78.8955
2023-04-06T04:42:37.287Z,99.4399
2023-04-06T04:47:38.748Z,123.10095
2023-04-06T04:52:40.395Z,137.04315
2023-04-06T04:57:41.771Z,154.102
2023-04-06T05:02:43.170Z,168.22865
2023-04-06T05:07:44.774Z,181.9864
2023-04-06T05:12:46.241Z,186.20975
2023-04-06T05:17:47.742Z,199.9675
2023-04-06T05:22:49.100Z,207.12305
2023-04-06T05:27:50.422Z,223.51825
2023-04-06T05:32:51.789Z,238.93605
2023-04-06T05:37:53.353Z,241.4442
2023-04-06T05:42:54.790Z,253.5609
2023-04-06T05:47:56.290Z,278.34765
2023-04-06T05:52:57.622Z,315.8976
2023-04-06T05:57:59.052Z,392.5264
2023-04-06T06:03:00.732Z,432.8051
2023-04-06T06:08:02.196Z,462.1841
2023-04-06T06:13:03.733Z,483.79905
2023-04-06T06:18:05.016Z,512.3851
2023-04-06T06:23:06.386Z,511.3164
2023-04-06T06:28:08.029Z,525.09315
2023-04-06T06:33:09.362Z,543.96035
2023-04-06T06:38:10.628Z,561.11235
2023-04-06T06:43:12.179Z,583.28065
2023-04-06T06:48:13.472Z,595.78525
2023-04-06T06:53:14.907Z,599.60355
2023-04-06T06:58:16.426Z,602.0204
2023-04-06T07:03:17.786Z,617.40205
2023-04-06T07:08:19.229Z,627.1589
2023-04-06T07:13:20.623Z,637.28465
2023-04-06T07:18:22.168Z,646.0641
2023-04-06T07:23:23.528Z,663.4557
2023-04-06T07:28:25.044Z,656.1537
2023-04-06T07:33:26.376Z,664.5091
2023-04-06T07:38:27.644Z,654.80925
2023-04-06T07:43:29.218Z,672.82835
2023-04-06T07:48:30.925Z,693.66935
2023-04-06T07:53:32.231Z,678.6033
2023-04-06T07:58:33.938Z,698.65135
2023-04-06T08:08:45.620Z,713.2419
2023-04-06T08:13:47.289Z,714.82965
2023-04-06T08:18:48.523Z,727.4084
2023-04-06T08:23:49.928Z,724.7728
2023-04-06T08:28:51.397Z,724.38675
2023-04-06T08:33:52.639Z,745.4122
2023-04-06T08:38:53.872Z,748.45655
2023-04-06T08:43:55.269Z,784.21715
2023-04-06T08:48:56.704Z,794.6015
2023-04-06T08:53:58.064Z,783.2047
2023-04-06T08:58:59.497Z,814.4926
2023-04-06T09:04:01.024Z,831.49945
2023-04-06T09:09:02.530Z,852.00245
2023-04-06T09:14:03.992Z,865.51305
2023-04-06T09:24:15.976Z,894.1935
2023-04-06T09:29:17.493Z,927.3185
2023-04-06T09:34:19.004Z,962.8731
2023-04-06T09:39:20.484Z,976.85785
2023-04-06T09:44:22.184Z,1001.7375
2023-04-06T09:49:23.504Z,1037.42395
2023-04-06T09:54:24.858Z,1032.73755
2023-04-06T09:59:26.262Z,1096.02415
2023-04-06T10:04:27.911Z,1080.97285
2023-04-06T10:09:29.181Z,1125.8024
2023-04-06T10:14:30.494Z,1146.91915
2023-04-06T10:19:31.804Z,1175.68965
2023-04-06T10:24:33.269Z,1187.5116
2023-04-06T10:29:34.780Z,1215.48915
2023-04-06T10:34:36.176Z,1276.53285
2023-04-06T10:39:37.618Z,1303.6433
2023-04-06T10:44:39.146Z,1340.78635
2023-04-06T10:49:40.478Z,1388.51535
2023-04-06T10:54:41.743Z,1413.22795
2023-04-06T10:59:43.076Z,1466.58175
2023-04-06T11:04:44.579Z,1499.7049
2023-04-06T11:09:53.544Z,1500.8116
2023-04-06T11:15:06.167Z,1572.4774
2023-04-06T11:20:07.626Z,1568.14375
2023-04-06T11:30:10.619Z,1672.85855
2023-04-06T11:35:11.870Z,1673.3016
2023-04-06T11:40:13.397Z,1717.43105
2023-04-06T11:45:14.727Z,1754.5551
2023-04-06T11:50:16.129Z,1745.9411
2023-04-06T11:55:17.544Z,1724.3813
2023-04-06T12:00:19.152Z,1818.6033
2023-04-06T12:05:20.568Z,1760.83985
2023-04-06T12:10:21.915Z,1884.6786
2023-04-06T12:15:23.245Z,1901.34955
2023-04-06T12:20:26.572Z,1938.98895
2023-04-06T12:25:29.617Z,1964.9547
2023-04-06T12:30:32.049Z,1872.78065
2023-04-06T12:35:33.449Z,1853.54455
2023-04-06T12:40:34.898Z,1863.5753
2023-04-06T12:45:36.223Z,1915.58095
2023-04-06T12:50:37.607Z,1914.75
2023-04-06T12:55:39.030Z,1938.50235
2023-04-06T13:00:40.411Z,1918.17855
2023-04-06T13:05:41.802Z,1911.3919
2023-04-06T13:10:43.159Z,1829.3436
2023-04-06T13:15:44.429Z,1940.2727
2023-04-06T13:20:45.697Z,618.7201
2023-04-06T13:25:46.983Z,1939.166
2023-04-06T13:35:58.817Z,753.5021
2023-04-06T13:41:00.056Z,1174.551
2023-04-06T13:46:01.471Z,1019.0267
2023-04-06T13:51:02.854Z,1281.43565
2023-04-06T13:56:04.480Z,601.8267
2023-04-06T14:01:06.124Z,573.66285
2023-04-06T14:06:20.325Z,1508.141
2023-04-06T14:11:28.818Z,1346.9349
2023-04-06T14:16:30.315Z,508.856
2023-04-06T14:21:31.669Z,467.69305
2023-04-06T14:26:33.248Z,422.93425
2023-04-06T14:31:34.491Z,413.474
2023-04-06T14:36:35.950Z,414.65485
2023-04-06T14:41:37.196Z,1393.6448
2023-04-06T14:46:38.453Z,1370.4991
2023-04-06T14:51:40.019Z,1258.315
2023-04-06T14:56:41.509Z,1141.8524
2023-04-06T15:01:43.217Z,981.3308
2023-04-06T15:06:44.840Z,812.54695
2023-04-06T15:11:46.438Z,629.433
2023-04-06T15:16:47.772Z,475.236
2023-04-06T15:21:49.213Z,349.36645
2023-04-06T15:26:50.705Z,267.3099
2023-04-06T15:31:51.987Z,202.77855
2023-04-06T15:36:53.395Z,121.1811
2023-04-06T15:41:54.995Z,76.88925
2023-04-06T15:46:56.257Z,64.2915
2023-04-06T15:51:57.920Z,50.5509
2023-04-06T15:56:59.240Z,25.2298
2023-04-06T16:02:00.732Z,16.8934
2023-04-06T16:07:02.222Z,6.8608
2023-04-06T16:12:03.919Z,3.7332
2023-04-06T16:17:05.206Z,1.54065
2023-04-06T16:22:06.749Z,0.47405
2023-04-06T16:27:08.216Z,0.88715
2023-04-06T16:32:09.549Z,0.88715
2023-04-06T16:37:11.109Z,0.88715
2023-04-06T16:42:12.444Z,0.88715
2023-04-06T16:47:14.136Z,0.88715
2023-04-06T16:52:15.771Z,0
2023-04-06T16:57:17.062Z,0
2023-04-06T17:02:18.546Z,0
2023-04-06T17:07:20.050Z,0.88715
2023-04-06T17:12:21.468Z,0
2023-04-06T17:17:22.915Z,0
2023-04-06T17:22:24.293Z,0
2023-04-06T17:27:25.669Z,0
2023-04-06T17:32:27.053Z,0
2023-04-06T17:37:28.393Z,0
2023-04-06T17:42:29.776Z,0
2023-04-06T17:47:31.112Z,0
2023-04-06T17:52:32.662Z,0
2023-04-06T17:57:33.931Z,0.88715
2023-04-06T18:02:35.495Z,0
2023-04-06T18:07:37.127Z,0
2023-04-06T18:12:38.365Z,0
2023-04-06T18:17:39.693Z,0
2023-04-06T18:22:41.285Z,0
2023-04-06T18:27:42.501Z,0
2023-04-06T18:32:43.799Z,0
2023-04-06T18:37:45.327Z,0
2023-04-06T18:42:46.667Z,0
2023-04-06T18:47:48.000Z,0.88715
2023-04-06T18:52:49.538Z,0
2023-04-06T18:57:51.018Z,0
2023-04-06T19:02:52.437Z,0
2023-04-06T19:07:53.851Z,0
2023-04-06T19:12:55.360Z,0
2023-04-06T19:17:56.897Z,0.88715
2023-04-06T19:22:58.590Z,0
2023-04-06T19:27:59.860Z,0.88715
2023-04-06T19:33:01.473Z,0
2023-04-06T19:38:03.100Z,0
2023-04-06T19:43:04.386Z,0
2023-04-06T19:48:05.680Z,0
2023-04-06T19:53:07.320Z,0
2023-04-06T19:58:08.947Z,0
2023-04-06T20:03:10.493Z,0
2023-04-06T20:08:12.046Z,0
2023-04-06T20:13:13.316Z,0.88715
2023-04-06T20:18:15.249Z,0
2023-04-06T20:23:16.609Z,0
2023-04-06T20:28:18.112Z,0
2023-04-06T20:33:19.470Z,0
2023-04-06T20:38:32.404Z,0
2023-04-06T20:43:34.268Z,0
2023-04-06T20:48:35.518Z,0
2023-04-06T20:53:37.063Z,0
2023-04-06T20:58:38.430Z,0
2023-04-06T21:03:39.758Z,0
2023-04-06T21:08:41.542Z,0.88715
2023-04-06T21:13:42.809Z,0
2023-04-06T21:18:44.108Z,0
2023-04-06T21:23:45.381Z,0
2023-04-06T21:28:46.798Z,0.88715
2023-04-06T21:33:48.390Z,0
2023-04-06T21:38:49.869Z,0
2023-04-06T21:43:51.140Z,0
2023-04-06T21:48:52.671Z,0.88715
2023-04-06T21:53:54.312Z,0
2023-04-06T21:58:55.550Z,0
2023-04-06T22:03:57.159Z,0.88715
2023-04-06T22:08:58.697Z,0
2023-04-06T22:13:59.925Z,0
2023-04-06T22:19:01.231Z,0
2023-04-06T22:24:02.554Z,0
2023-04-06T22:29:03.804Z,0
2023-04-06T22:34:05.092Z,0.88715
2023-04-06T22:39:06.407Z,0
2023-04-06T22:44:07.654Z,0
2023-04-06T22:49:09.765Z,0.88715
2023-04-06T22:54:11.381Z,0.88715
2023-04-06T22:59:12.663Z,0
2023-04-06T23:04:13.961Z,0.88715
2023-04-06T23:09:15.512Z,0
2023-04-06T23:14:17.196Z,0
2023-04-06T23:19:18.819Z,0
2023-04-06T23:24:20.259Z,0
2023-04-06T23:29:21.529Z,0.88715
2023-04-06T23:34:22.925Z,0
2023-04-06T23:39:24.557Z,0
2023-04-06T23:44:25.897Z,0.88715
2023-04-06T23:49:27.371Z,0
2023-04-06T23:54:28.762Z,0.88715
2023-04-06T23:59:30.202Z,0.88715
